sensor_id;sensor_type;location;lat;lon;timestamp;P1;durP1;ratioP1;P2;durP2;ratioP2
6394;SDS011;3230;42.588;23.358;2024-03-02T00:02:40;28.17;;;15.67;;
6394;SDS011;3230;42.588;23.358;2024-03-02T00:05:06;21.67;;;11.67;;
6394;SDS011;3230;42.588;23.358;2024-03-02T00:07:32;19.55;;;9.98;;
6394;SDS011;3230;42.588;23.358;2024-03-02T00:09:58;18.60;;;10.50;;
6394;SDS011;3230;42.588;23.358;2024-03-02T00:12:23;23.20;;;11.40;;
6394;SDS011;3230;42.588;23.358;2024-03-02T00:14:49;19.27;;;10.43;;
6394;SDS011;3230;42.588;23.358;2024-03-02T00:17:17;21.43;;;10.27;;
6394;SDS011;3230;42.588;23.358;2024-03-02T00:19:49;20.65;;;9.98;;
6394;SDS011;3230;42.588;23.358;2024-03-02T00:22:15;22.40;;;11.70;;
6394;SDS011;3230;42.588;23.358;2024-03-02T00:24:40;19.07;;;10.20;;
6394;SDS011;3230;42.588;23.358;2024-03-02T00:27:06;18.13;;;8.97;;
6394;SDS011;3230;42.588;23.358;2024-03-02T00:29:32;19.48;;;8.40;;
6394;SDS011;3230;42.588;23.358;2024-03-02T00:31:58;16.63;;;8.60;;
6394;SDS011;3230;42.588;23.358;2024-03-02T00:34:23;19.63;;;7.73;;
6394;SDS011;3230;42.588;23.358;2024-03-02T00:36:48;12.77;;;7.70;;
6394;SDS011;3230;42.588;23.358;2024-03-02T00:39:15;16.20;;;8.30;;
6394;SDS011;3230;42.588;23.358;2024-03-02T00:41:42;14.17;;;7.30;;
6394;SDS011;3230;42.588;23.358;2024-03-02T00:44:09;13.40;;;7.20;;
6394;SDS011;3230;42.588;23.358;2024-03-02T00:46:37;17.83;;;8.87;;
6394;SDS011;3230;42.588;23.358;2024-03-02T00:49:05;13.80;;;8.17;;
6394;SDS011;3230;42.588;23.358;2024-03-02T00:51:37;12.33;;;6.57;;
6394;SDS011;3230;42.588;23.358;2024-03-02T00:54:04;13.03;;;7.27;;
6394;SDS011;3230;42.588;23.358;2024-03-02T00:56:31;12.40;;;7.23;;
6394;SDS011;3230;42.588;23.358;2024-03-02T00:58:57;12.60;;;6.83;;
6394;SDS011;3230;42.588;23.358;2024-03-02T01:01:23;13.70;;;8.20;;
6394;SDS011;3230;42.588;23.358;2024-03-02T01:03:48;9.00;;;5.60;;
6394;SDS011;3230;42.588;23.358;2024-03-02T01:06:14;10.27;;;5.93;;
6394;SDS011;3230;42.588;23.358;2024-03-02T01:08:40;16.53;;;7.17;;
6394;SDS011;3230;42.588;23.358;2024-03-02T01:11:06;13.53;;;6.93;;
6394;SDS011;3230;42.588;23.358;2024-03-02T01:13:31;12.60;;;6.50;;
6394;SDS011;3230;42.588;23.358;2024-03-02T01:15:57;10.33;;;6.53;;
6394;SDS011;3230;42.588;23.358;2024-03-02T01:18:24;12.25;;;6.93;;
6394;SDS011;3230;42.588;23.358;2024-03-02T01:20:49;10.70;;;6.70;;
6394;SDS011;3230;42.588;23.358;2024-03-02T01:23:20;24.27;;;12.40;;
6394;SDS011;3230;42.588;23.358;2024-03-02T01:25:46;21.43;;;10.47;;
6394;SDS011;3230;42.588;23.358;2024-03-02T01:28:12;17.08;;;9.15;;
6394;SDS011;3230;42.588;23.358;2024-03-02T01:30:38;17.73;;;9.10;;
6394;SDS011;3230;42.588;23.358;2024-03-02T01:33:03;11.80;;;6.40;;
6394;SDS011;3230;42.588;23.358;2024-03-02T01:35:30;11.30;;;6.80;;
6394;SDS011;3230;42.588;23.358;2024-03-02T01:37:56;12.80;;;6.90;;
6394;SDS011;3230;42.588;23.358;2024-03-02T01:40:21;12.60;;;6.30;;
6394;SDS011;3230;42.588;23.358;2024-03-02T01:42:51;15.67;;;8.10;;
6394;SDS011;3230;42.588;23.358;2024-03-02T01:45:16;15.83;;;7.10;;
6394;SDS011;3230;42.588;23.358;2024-03-02T01:47:42;11.40;;;6.40;;
6394;SDS011;3230;42.588;23.358;2024-03-02T01:50:07;19.37;;;9.00;;
6394;SDS011;3230;42.588;23.358;2024-03-02T01:52:34;16.63;;;7.90;;
6394;SDS011;3230;42.588;23.358;2024-03-02T01:54:59;11.67;;;6.80;;
6394;SDS011;3230;42.588;23.358;2024-03-02T01:57:25;10.70;;;5.90;;
6394;SDS011;3230;42.588;23.358;2024-03-02T01:59:50;11.80;;;6.77;;
6394;SDS011;3230;42.588;23.358;2024-03-02T02:02:16;18.17;;;7.70;;
6394;SDS011;3230;42.588;23.358;2024-03-02T02:04:41;10.70;;;6.17;;
6394;SDS011;3230;42.588;23.358;2024-03-02T02:07:07;12.57;;;6.80;;
6394;SDS011;3230;42.588;23.358;2024-03-02T02:09:33;18.73;;;8.07;;
6394;SDS011;3230;42.588;23.358;2024-03-02T02:11:58;14.97;;;7.50;;
6394;SDS011;3230;42.588;23.358;2024-03-02T02:14:24;9.17;;;5.50;;
6394;SDS011;3230;42.588;23.358;2024-03-02T02:16:49;13.73;;;6.93;;
6394;SDS011;3230;42.588;23.358;2024-03-02T02:19:15;8.47;;;5.60;;
6394;SDS011;3230;42.588;23.358;2024-03-02T02:21:43;15.10;;;7.43;;
6394;SDS011;3230;42.588;23.358;2024-03-02T02:24:09;14.00;;;7.93;;
6394;SDS011;3230;42.588;23.358;2024-03-02T02:26:34;11.83;;;6.30;;
6394;SDS011;3230;42.588;23.358;2024-03-02T02:29:00;12.00;;;7.00;;
6394;SDS011;3230;42.588;23.358;2024-03-02T02:31:25;13.77;;;8.03;;
6394;SDS011;3230;42.588;23.358;2024-03-02T02:33:50;14.90;;;8.60;;
6394;SDS011;3230;42.588;23.358;2024-03-02T02:36:16;17.33;;;8.43;;
6394;SDS011;3230;42.588;23.358;2024-03-02T02:38:42;15.60;;;8.90;;
6394;SDS011;3230;42.588;23.358;2024-03-02T02:41:11;14.80;;;8.90;;
6394;SDS011;3230;42.588;23.358;2024-03-02T02:43:37;12.40;;;7.03;;
6394;SDS011;3230;42.588;23.358;2024-03-02T02:46:04;14.50;;;7.50;;
6394;SDS011;3230;42.588;23.358;2024-03-02T02:48:30;14.23;;;7.80;;
6394;SDS011;3230;42.588;23.358;2024-03-02T02:50:55;14.70;;;7.90;;
6394;SDS011;3230;42.588;23.358;2024-03-02T02:53:21;11.10;;;7.03;;
6394;SDS011;3230;42.588;23.358;2024-03-02T02:55:46;13.00;;;6.90;;
6394;SDS011;3230;42.588;23.358;2024-03-02T02:58:12;15.90;;;7.47;;
6394;SDS011;3230;42.588;23.358;2024-03-02T03:00:37;10.83;;;6.07;;
6394;SDS011;3230;42.588;23.358;2024-03-02T03:03:03;13.40;;;7.60;;
6394;SDS011;3230;42.588;23.358;2024-03-02T03:05:29;14.97;;;8.10;;
6394;SDS011;3230;42.588;23.358;2024-03-02T03:07:54;14.97;;;7.77;;
6394;SDS011;3230;42.588;23.358;2024-03-02T03:10:20;16.13;;;8.00;;
6394;SDS011;3230;42.588;23.358;2024-03-02T03:12:47;13.38;;;8.57;;
6394;SDS011;3230;42.588;23.358;2024-03-02T03:15:12;15.87;;;8.30;;
6394;SDS011;3230;42.588;23.358;2024-03-02T03:17:38;12.90;;;7.70;;
6394;SDS011;3230;42.588;23.358;2024-03-02T03:20:04;14.40;;;7.57;;
6394;SDS011;3230;42.588;23.358;2024-03-02T03:22:30;15.67;;;8.00;;
6394;SDS011;3230;42.588;23.358;2024-03-02T03:25:00;18.33;;;9.70;;
6394;SDS011;3230;42.588;23.358;2024-03-02T03:27:25;11.83;;;7.37;;
6394;SDS011;3230;42.588;23.358;2024-03-02T03:29:51;16.97;;;7.87;;
6394;SDS011;3230;42.588;23.358;2024-03-02T03:32:17;16.10;;;7.93;;
6394;SDS011;3230;42.588;23.358;2024-03-02T03:34:42;15.17;;;8.00;;
6394;SDS011;3230;42.588;23.358;2024-03-02T03:37:08;15.37;;;7.87;;
6394;SDS011;3230;42.588;23.358;2024-03-02T03:39:34;11.23;;;6.70;;
6394;SDS011;3230;42.588;23.358;2024-03-02T03:42:00;19.73;;;7.83;;
6394;SDS011;3230;42.588;23.358;2024-03-02T03:44:26;13.80;;;7.77;;
6394;SDS011;3230;42.588;23.358;2024-03-02T03:46:51;12.77;;;6.83;;
6394;SDS011;3230;42.588;23.358;2024-03-02T03:49:16;16.73;;;7.87;;
6394;SDS011;3230;42.588;23.358;2024-03-02T03:51:42;12.27;;;6.30;;
6394;SDS011;3230;42.588;23.358;2024-03-02T03:54:07;13.60;;;7.40;;
6394;SDS011;3230;42.588;23.358;2024-03-02T03:56:33;12.03;;;6.30;;
6394;SDS011;3230;42.588;23.358;2024-03-02T03:58:58;9.67;;;5.97;;
6394;SDS011;3230;42.588;23.358;2024-03-02T04:01:24;10.63;;;6.00;;
6394;SDS011;3230;42.588;23.358;2024-03-02T04:03:50;12.30;;;6.40;;
6394;SDS011;3230;42.588;23.358;2024-03-02T04:06:15;14.77;;;6.93;;
6394;SDS011;3230;42.588;23.358;2024-03-02T04:08:42;13.13;;;5.70;;
6394;SDS011;3230;42.588;23.358;2024-03-02T04:11:08;13.53;;;7.13;;
6394;SDS011;3230;42.588;23.358;2024-03-02T04:13:33;12.07;;;6.77;;
6394;SDS011;3230;42.588;23.358;2024-03-02T04:15:59;12.77;;;7.77;;
6394;SDS011;3230;42.588;23.358;2024-03-02T04:18:24;13.87;;;7.60;;
6394;SDS011;3230;42.588;23.358;2024-03-02T04:20:49;13.93;;;7.70;;
6394;SDS011;3230;42.588;23.358;2024-03-02T04:23:15;11.27;;;6.40;;
6394;SDS011;3230;42.588;23.358;2024-03-02T04:25:40;18.17;;;7.57;;
6394;SDS011;3230;42.588;23.358;2024-03-02T04:28:06;15.47;;;7.20;;
6394;SDS011;3230;42.588;23.358;2024-03-02T04:30:31;14.97;;;7.50;;
6394;SDS011;3230;42.588;23.358;2024-03-02T04:32:57;13.80;;;7.07;;
6394;SDS011;3230;42.588;23.358;2024-03-02T04:35:22;13.83;;;7.70;;
6394;SDS011;3230;42.588;23.358;2024-03-02T04:37:48;17.00;;;7.47;;
6394;SDS011;3230;42.588;23.358;2024-03-02T04:40:13;13.30;;;7.20;;
6394;SDS011;3230;42.588;23.358;2024-03-02T04:42:39;12.80;;;7.50;;
6394;SDS011;3230;42.588;23.358;2024-03-02T04:45:05;16.03;;;7.80;;
6394;SDS011;3230;42.588;23.358;2024-03-02T04:47:31;14.30;;;8.07;;
6394;SDS011;3230;42.588;23.358;2024-03-02T04:49:56;17.53;;;9.00;;
6394;SDS011;3230;42.588;23.358;2024-03-02T04:52:21;13.90;;;8.10;;
6394;SDS011;3230;42.588;23.358;2024-03-02T04:54:47;14.00;;;8.27;;
6394;SDS011;3230;42.588;23.358;2024-03-02T04:57:31;16.30;;;8.98;;
6394;SDS011;3230;42.588;23.358;2024-03-02T04:59:56;18.87;;;10.80;;
6394;SDS011;3230;42.588;23.358;2024-03-02T05:02:21;17.23;;;8.83;;
6394;SDS011;3230;42.588;23.358;2024-03-02T05:04:47;19.07;;;9.53;;
6394;SDS011;3230;42.588;23.358;2024-03-02T05:07:13;16.20;;;10.27;;
6394;SDS011;3230;42.588;23.358;2024-03-02T05:09:39;14.43;;;8.50;;
6394;SDS011;3230;42.588;23.358;2024-03-02T05:12:05;18.77;;;9.00;;
6394;SDS011;3230;42.588;23.358;2024-03-02T05:14:54;18.07;;;8.70;;
6394;SDS011;3230;42.588;23.358;2024-03-02T05:17:21;18.20;;;8.20;;
6394;SDS011;3230;42.588;23.358;2024-03-02T05:19:46;19.43;;;9.43;;
6394;SDS011;3230;42.588;23.358;2024-03-02T05:22:11;17.63;;;9.63;;
6394;SDS011;3230;42.588;23.358;2024-03-02T05:24:37;25.40;;;11.17;;
6394;SDS011;3230;42.588;23.358;2024-03-02T05:27:02;24.13;;;12.80;;
6394;SDS011;3230;42.588;23.358;2024-03-02T05:29:28;23.43;;;13.50;;
6394;SDS011;3230;42.588;23.358;2024-03-02T05:31:53;26.37;;;14.17;;
6394;SDS011;3230;42.588;23.358;2024-03-02T05:34:18;19.70;;;10.73;;
6394;SDS011;3230;42.588;23.358;2024-03-02T05:36:44;17.77;;;9.80;;
6394;SDS011;3230;42.588;23.358;2024-03-02T05:39:09;19.87;;;10.93;;
6394;SDS011;3230;42.588;23.358;2024-03-02T05:41:35;24.57;;;11.80;;
6394;SDS011;3230;42.588;23.358;2024-03-02T05:44:01;19.07;;;11.00;;
6394;SDS011;3230;42.588;23.358;2024-03-02T05:46:26;23.33;;;11.40;;
6394;SDS011;3230;42.588;23.358;2024-03-02T05:48:52;21.47;;;12.00;;
6394;SDS011;3230;42.588;23.358;2024-03-02T05:51:17;27.93;;;14.00;;
6394;SDS011;3230;42.588;23.358;2024-03-02T05:53:43;15.00;;;8.30;;
6394;SDS011;3230;42.588;23.358;2024-03-02T05:56:08;19.80;;;10.33;;
6394;SDS011;3230;42.588;23.358;2024-03-02T05:58:34;19.37;;;10.20;;
6394;SDS011;3230;42.588;23.358;2024-03-02T06:01:35;16.87;;;10.27;;
6394;SDS011;3230;42.588;23.358;2024-03-02T06:04:00;23.67;;;11.40;;
6394;SDS011;3230;42.588;23.358;2024-03-02T06:06:26;17.50;;;9.70;;
6394;SDS011;3230;42.588;23.358;2024-03-02T06:08:51;26.03;;;14.70;;
6394;SDS011;3230;42.588;23.358;2024-03-02T06:11:18;16.57;;;10.37;;
6394;SDS011;3230;42.588;23.358;2024-03-02T06:13:44;15.90;;;9.17;;
6394;SDS011;3230;42.588;23.358;2024-03-02T06:16:10;14.83;;;8.87;;
6394;SDS011;3230;42.588;23.358;2024-03-02T06:18:35;15.77;;;9.60;;
6394;SDS011;3230;42.588;23.358;2024-03-02T06:21:01;17.93;;;11.33;;
6394;SDS011;3230;42.588;23.358;2024-03-02T06:23:26;21.03;;;11.83;;
6394;SDS011;3230;42.588;23.358;2024-03-02T06:25:52;18.97;;;10.60;;
6394;SDS011;3230;42.588;23.358;2024-03-02T06:28:18;18.10;;;10.70;;
6394;SDS011;3230;42.588;23.358;2024-03-02T06:30:43;18.37;;;11.10;;
6394;SDS011;3230;42.588;23.358;2024-03-02T06:33:09;16.37;;;9.73;;
6394;SDS011;3230;42.588;23.358;2024-03-02T06:35:34;17.80;;;10.73;;
6394;SDS011;3230;42.588;23.358;2024-03-02T06:38:00;18.60;;;11.33;;
6394;SDS011;3230;42.588;23.358;2024-03-02T06:40:32;15.00;;;8.90;;
6394;SDS011;3230;42.588;23.358;2024-03-02T06:42:59;14.67;;;7.60;;
6394;SDS011;3230;42.588;23.358;2024-03-02T06:45:30;15.97;;;8.60;;
6394;SDS011;3230;42.588;23.358;2024-03-02T06:47:56;13.90;;;7.40;;
6394;SDS011;3230;42.588;23.358;2024-03-02T06:50:22;11.83;;;6.60;;
6394;SDS011;3230;42.588;23.358;2024-03-02T06:52:47;14.20;;;7.27;;
6394;SDS011;3230;42.588;23.358;2024-03-02T06:55:12;12.77;;;6.33;;
6394;SDS011;3230;42.588;23.358;2024-03-02T06:57:38;9.00;;;6.13;;
6394;SDS011;3230;42.588;23.358;2024-03-02T07:00:03;16.07;;;7.47;;
6394;SDS011;3230;42.588;23.358;2024-03-02T07:02:31;10.83;;;6.67;;
6394;SDS011;3230;42.588;23.358;2024-03-02T07:04:57;10.30;;;6.67;;
6394;SDS011;3230;42.588;23.358;2024-03-02T07:07:22;10.53;;;6.87;;
6394;SDS011;3230;42.588;23.358;2024-03-02T07:09:48;12.33;;;7.33;;
6394;SDS011;3230;42.588;23.358;2024-03-02T07:12:13;24.33;;;12.70;;
6394;SDS011;3230;42.588;23.358;2024-03-02T07:14:39;14.17;;;8.40;;
6394;SDS011;3230;42.588;23.358;2024-03-02T07:17:23;17.00;;;9.17;;
6394;SDS011;3230;42.588;23.358;2024-03-02T07:19:48;14.10;;;9.30;;
6394;SDS011;3230;42.588;23.358;2024-03-02T07:22:14;21.00;;;9.60;;
6394;SDS011;3230;42.588;23.358;2024-03-02T07:24:40;16.80;;;10.10;;
6394;SDS011;3230;42.588;23.358;2024-03-02T07:27:09;28.90;;;12.83;;
6394;SDS011;3230;42.588;23.358;2024-03-02T07:29:34;19.33;;;12.10;;
6394;SDS011;3230;42.588;23.358;2024-03-02T07:32:00;20.33;;;11.50;;
6394;SDS011;3230;42.588;23.358;2024-03-02T07:34:26;21.57;;;11.63;;
6394;SDS011;3230;42.588;23.358;2024-03-02T07:36:51;21.53;;;12.00;;
6394;SDS011;3230;42.588;23.358;2024-03-02T07:39:17;27.87;;;14.10;;
6394;SDS011;3230;42.588;23.358;2024-03-02T07:41:45;29.60;;;15.13;;
6394;SDS011;3230;42.588;23.358;2024-03-02T07:44:11;29.33;;;15.73;;
6394;SDS011;3230;42.588;23.358;2024-03-02T07:46:39;23.50;;;13.00;;
6394;SDS011;3230;42.588;23.358;2024-03-02T07:49:08;27.53;;;14.77;;
6394;SDS011;3230;42.588;23.358;2024-03-02T07:51:34;24.40;;;12.50;;
6394;SDS011;3230;42.588;23.358;2024-03-02T07:54:00;23.20;;;12.20;;
6394;SDS011;3230;42.588;23.358;2024-03-02T07:56:25;14.43;;;8.20;;
6394;SDS011;3230;42.588;23.358;2024-03-02T07:58:51;14.00;;;8.37;;
6394;SDS011;3230;42.588;23.358;2024-03-02T08:01:17;16.73;;;8.20;;
6394;SDS011;3230;42.588;23.358;2024-03-02T08:03:43;13.37;;;8.07;;
6394;SDS011;3230;42.588;23.358;2024-03-02T08:06:13;13.60;;;7.53;;
6394;SDS011;3230;42.588;23.358;2024-03-02T08:08:40;15.83;;;7.93;;
6394;SDS011;3230;42.588;23.358;2024-03-02T08:11:06;16.70;;;8.30;;
6394;SDS011;3230;42.588;23.358;2024-03-02T08:13:31;14.43;;;8.03;;
6394;SDS011;3230;42.588;23.358;2024-03-02T08:15:56;15.53;;;7.90;;
6394;SDS011;3230;42.588;23.358;2024-03-02T08:18:22;14.67;;;8.90;;
6394;SDS011;3230;42.588;23.358;2024-03-02T08:20:47;17.80;;;8.57;;
6394;SDS011;3230;42.588;23.358;2024-03-02T08:23:13;18.47;;;10.27;;
6394;SDS011;3230;42.588;23.358;2024-03-02T08:25:38;17.10;;;9.70;;
6394;SDS011;3230;42.588;23.358;2024-03-02T08:28:04;18.30;;;9.30;;
6394;SDS011;3230;42.588;23.358;2024-03-02T08:30:29;16.67;;;9.37;;
6394;SDS011;3230;42.588;23.358;2024-03-02T08:32:55;21.13;;;10.70;;
6394;SDS011;3230;42.588;23.358;2024-03-02T08:35:20;16.37;;;9.77;;
6394;SDS011;3230;42.588;23.358;2024-03-02T08:37:47;15.40;;;7.77;;
6394;SDS011;3230;42.588;23.358;2024-03-02T08:40:13;16.03;;;8.33;;
6394;SDS011;3230;42.588;23.358;2024-03-02T08:42:39;14.63;;;8.60;;
6394;SDS011;3230;42.588;23.358;2024-03-02T08:45:05;13.73;;;7.73;;
6394;SDS011;3230;42.588;23.358;2024-03-02T08:47:31;17.87;;;9.93;;
6394;SDS011;3230;42.588;23.358;2024-03-02T08:49:57;14.03;;;8.10;;
6394;SDS011;3230;42.588;23.358;2024-03-02T08:52:23;17.67;;;9.10;;
6394;SDS011;3230;42.588;23.358;2024-03-02T08:54:48;18.23;;;9.97;;
6394;SDS011;3230;42.588;23.358;2024-03-02T08:57:14;17.67;;;8.87;;
6394;SDS011;3230;42.588;23.358;2024-03-02T08:59:39;14.60;;;9.07;;
6394;SDS011;3230;42.588;23.358;2024-03-02T09:02:05;20.20;;;9.70;;
6394;SDS011;3230;42.588;23.358;2024-03-02T09:04:30;17.50;;;10.50;;
6394;SDS011;3230;42.588;23.358;2024-03-02T09:06:56;19.90;;;9.77;;
6394;SDS011;3230;42.588;23.358;2024-03-02T09:09:21;17.77;;;9.63;;
6394;SDS011;3230;42.588;23.358;2024-03-02T09:11:46;28.70;;;13.73;;
6394;SDS011;3230;42.588;23.358;2024-03-02T09:14:12;26.07;;;13.10;;
6394;SDS011;3230;42.588;23.358;2024-03-02T09:16:39;19.80;;;10.57;;
6394;SDS011;3230;42.588;23.358;2024-03-02T09:19:05;19.03;;;9.30;;
6394;SDS011;3230;42.588;23.358;2024-03-02T09:21:30;21.07;;;9.43;;
6394;SDS011;3230;42.588;23.358;2024-03-02T09:23:56;15.93;;;9.13;;
6394;SDS011;3230;42.588;23.358;2024-03-02T09:26:21;15.07;;;8.13;;
6394;SDS011;3230;42.588;23.358;2024-03-02T09:28:49;16.53;;;8.03;;
6394;SDS011;3230;42.588;23.358;2024-03-02T09:31:15;16.10;;;9.40;;
6394;SDS011;3230;42.588;23.358;2024-03-02T09:33:40;13.80;;;7.60;;
6394;SDS011;3230;42.588;23.358;2024-03-02T09:36:06;14.33;;;6.60;;
6394;SDS011;3230;42.588;23.358;2024-03-02T09:38:41;15.50;;;8.10;;
6394;SDS011;3230;42.588;23.358;2024-03-02T09:41:06;20.00;;;9.07;;
6394;SDS011;3230;42.588;23.358;2024-03-02T09:43:32;14.60;;;7.60;;
6394;SDS011;3230;42.588;23.358;2024-03-02T09:45:57;13.70;;;7.87;;
6394;SDS011;3230;42.588;23.358;2024-03-02T09:48:23;10.63;;;6.77;;
6394;SDS011;3230;42.588;23.358;2024-03-02T09:50:48;12.57;;;6.60;;
6394;SDS011;3230;42.588;23.358;2024-03-02T09:53:14;14.43;;;7.80;;
6394;SDS011;3230;42.588;23.358;2024-03-02T09:55:40;15.30;;;7.70;;
6394;SDS011;3230;42.588;23.358;2024-03-02T09:58:08;17.90;;;8.00;;
6394;SDS011;3230;42.588;23.358;2024-03-02T10:00:34;13.57;;;8.30;;
6394;SDS011;3230;42.588;23.358;2024-03-02T10:02:59;21.33;;;8.07;;
6394;SDS011;3230;42.588;23.358;2024-03-02T10:05:26;20.33;;;10.40;;
6394;SDS011;3230;42.588;23.358;2024-03-02T10:08:01;15.73;;;8.20;;
6394;SDS011;3230;42.588;23.358;2024-03-02T10:10:37;15.77;;;8.00;;
6394;SDS011;3230;42.588;23.358;2024-03-02T10:13:12;14.20;;;7.90;;
6394;SDS011;3230;42.588;23.358;2024-03-02T10:15:39;15.93;;;7.90;;
6394;SDS011;3230;42.588;23.358;2024-03-02T10:18:09;14.77;;;7.20;;
6394;SDS011;3230;42.588;23.358;2024-03-02T10:20:38;13.20;;;7.60;;
6394;SDS011;3230;42.588;23.358;2024-03-02T10:23:15;14.83;;;9.23;;
6394;SDS011;3230;42.588;23.358;2024-03-02T10:25:42;19.50;;;9.33;;
6394;SDS011;3230;42.588;23.358;2024-03-02T10:28:08;18.80;;;8.07;;
6394;SDS011;3230;42.588;23.358;2024-03-02T10:30:34;16.47;;;8.47;;
6394;SDS011;3230;42.588;23.358;2024-03-02T10:33:01;16.13;;;7.90;;
6394;SDS011;3230;42.588;23.358;2024-03-02T10:35:27;17.20;;;8.40;;
6394;SDS011;3230;42.588;23.358;2024-03-02T10:37:53;14.40;;;7.57;;
6394;SDS011;3230;42.588;23.358;2024-03-02T10:40:21;16.40;;;9.00;;
6394;SDS011;3230;42.588;23.358;2024-03-02T10:42:48;13.50;;;8.80;;
6394;SDS011;3230;42.588;23.358;2024-03-02T10:45:15;17.53;;;10.00;;
6394;SDS011;3230;42.588;23.358;2024-03-02T10:47:42;22.10;;;9.60;;
6394;SDS011;3230;42.588;23.358;2024-03-02T10:50:09;18.77;;;9.40;;
6394;SDS011;3230;42.588;23.358;2024-03-02T10:52:35;19.70;;;9.90;;
6394;SDS011;3230;42.588;23.358;2024-03-02T10:55:01;23.70;;;11.50;;
6394;SDS011;3230;42.588;23.358;2024-03-02T10:57:32;19.40;;;9.70;;
6394;SDS011;3230;42.588;23.358;2024-03-02T11:00:05;18.87;;;10.33;;
6394;SDS011;3230;42.588;23.358;2024-03-02T11:02:32;21.10;;;10.43;;
6394;SDS011;3230;42.588;23.358;2024-03-02T11:05:02;17.50;;;9.00;;
6394;SDS011;3230;42.588;23.358;2024-03-02T11:07:32;17.03;;;9.80;;
6394;SDS011;3230;42.588;23.358;2024-03-02T11:09:59;15.97;;;8.97;;
6394;SDS011;3230;42.588;23.358;2024-03-02T11:12:35;18.20;;;9.27;;
6394;SDS011;3230;42.588;23.358;2024-03-02T11:15:04;19.20;;;9.97;;
6394;SDS011;3230;42.588;23.358;2024-03-02T11:17:37;17.67;;;8.93;;
6394;SDS011;3230;42.588;23.358;2024-03-02T11:20:05;15.53;;;9.57;;
6394;SDS011;3230;42.588;23.358;2024-03-02T11:22:34;16.90;;;8.87;;
6394;SDS011;3230;42.588;23.358;2024-03-02T11:25:01;19.00;;;9.90;;
6394;SDS011;3230;42.588;23.358;2024-03-02T11:30:40;20.53;;;10.40;;
6394;SDS011;3230;42.588;23.358;2024-03-02T11:32:59;17.10;;;9.57;;
6394;SDS011;3230;42.588;23.358;2024-03-02T11:35:25;16.60;;;9.40;;
6394;SDS011;3230;42.588;23.358;2024-03-02T11:37:51;19.97;;;10.00;;
6394;SDS011;3230;42.588;23.358;2024-03-02T11:40:24;19.87;;;10.27;;
6394;SDS011;3230;42.588;23.358;2024-03-02T11:42:50;20.20;;;9.30;;
6394;SDS011;3230;42.588;23.358;2024-03-02T11:45:22;22.53;;;9.63;;
6394;SDS011;3230;42.588;23.358;2024-03-02T11:47:55;21.60;;;10.30;;
6394;SDS011;3230;42.588;23.358;2024-03-02T11:50:35;21.73;;;10.87;;
6394;SDS011;3230;42.588;23.358;2024-03-02T11:53:05;19.27;;;10.23;;
6394;SDS011;3230;42.588;23.358;2024-03-02T11:55:34;16.70;;;9.90;;
6394;SDS011;3230;42.588;23.358;2024-03-02T11:58:01;16.80;;;9.30;;
6394;SDS011;3230;42.588;23.358;2024-03-02T12:00:27;17.17;;;9.20;;
6394;SDS011;3230;42.588;23.358;2024-03-02T12:02:59;19.57;;;10.33;;
6394;SDS011;3230;42.588;23.358;2024-03-02T12:05:27;20.57;;;10.67;;
6394;SDS011;3230;42.588;23.358;2024-03-02T12:08:00;19.97;;;9.30;;
6394;SDS011;3230;42.588;23.358;2024-03-02T12:10:30;18.87;;;10.67;;
6394;SDS011;3230;42.588;23.358;2024-03-02T12:13:00;21.57;;;9.97;;
6394;SDS011;3230;42.588;23.358;2024-03-02T12:15:30;21.77;;;9.03;;
6394;SDS011;3230;42.588;23.358;2024-03-02T12:17:57;25.50;;;11.70;;
6394;SDS011;3230;42.588;23.358;2024-03-02T12:20:25;19.60;;;10.27;;
6394;SDS011;3230;42.588;23.358;2024-03-02T12:22:53;23.80;;;11.30;;
6394;SDS011;3230;42.588;23.358;2024-03-02T12:25:19;18.30;;;11.10;;
6394;SDS011;3230;42.588;23.358;2024-03-02T12:27:46;22.73;;;10.77;;
6394;SDS011;3230;42.588;23.358;2024-03-02T12:30:12;18.70;;;10.57;;
6394;SDS011;3230;42.588;23.358;2024-03-02T12:32:39;21.43;;;11.30;;
6394;SDS011;3230;42.588;23.358;2024-03-02T12:35:05;21.30;;;11.20;;
6394;SDS011;3230;42.588;23.358;2024-03-02T12:37:31;35.13;;;13.07;;
6394;SDS011;3230;42.588;23.358;2024-03-02T12:39:57;24.20;;;11.57;;
6394;SDS011;3230;42.588;23.358;2024-03-02T12:42:23;26.33;;;12.50;;
6394;SDS011;3230;42.588;23.358;2024-03-02T12:44:51;23.40;;;12.43;;
6394;SDS011;3230;42.588;23.358;2024-03-02T12:47:19;22.00;;;11.97;;
6394;SDS011;3230;42.588;23.358;2024-03-02T12:49:45;26.10;;;12.63;;
6394;SDS011;3230;42.588;23.358;2024-03-02T12:52:12;25.03;;;13.10;;
6394;SDS011;3230;42.588;23.358;2024-03-02T12:54:38;22.87;;;12.33;;
6394;SDS011;3230;42.588;23.358;2024-03-02T12:57:04;25.97;;;11.60;;
6394;SDS011;3230;42.588;23.358;2024-03-02T12:59:30;29.40;;;12.80;;
6394;SDS011;3230;42.588;23.358;2024-03-02T13:01:56;25.70;;;11.70;;
6394;SDS011;3230;42.588;23.358;2024-03-02T13:04:26;23.97;;;11.87;;
6394;SDS011;3230;42.588;23.358;2024-03-02T13:06:56;24.47;;;12.90;;
6394;SDS011;3230;42.588;23.358;2024-03-02T13:09:22;22.73;;;12.70;;
6394;SDS011;3230;42.588;23.358;2024-03-02T13:11:48;28.97;;;12.87;;
6394;SDS011;3230;42.588;23.358;2024-03-02T13:14:14;27.37;;;13.30;;
6394;SDS011;3230;42.588;23.358;2024-03-02T13:16:40;23.93;;;12.70;;
6394;SDS011;3230;42.588;23.358;2024-03-02T13:19:09;24.17;;;12.63;;
6394;SDS011;3230;42.588;23.358;2024-03-02T13:21:36;22.40;;;11.50;;
6394;SDS011;3230;42.588;23.358;2024-03-02T13:24:01;22.03;;;12.47;;
6394;SDS011;3230;42.588;23.358;2024-03-02T13:26:28;25.60;;;13.30;;
6394;SDS011;3230;42.588;23.358;2024-03-02T13:28:54;26.73;;;13.30;;
6394;SDS011;3230;42.588;23.358;2024-03-02T13:31:19;26.40;;;12.20;;
6394;SDS011;3230;42.588;23.358;2024-03-02T13:33:45;31.57;;;14.13;;
6394;SDS011;3230;42.588;23.358;2024-03-02T13:36:11;27.97;;;14.47;;
6394;SDS011;3230;42.588;23.358;2024-03-02T13:38:37;26.97;;;13.60;;
6394;SDS011;3230;42.588;23.358;2024-03-02T13:41:02;30.57;;;14.23;;
6394;SDS011;3230;42.588;23.358;2024-03-02T13:43:28;38.33;;;15.20;;
6394;SDS011;3230;42.588;23.358;2024-03-02T13:45:57;19.87;;;12.53;;
6394;SDS011;3230;42.588;23.358;2024-03-02T13:48:25;24.90;;;13.47;;
6394;SDS011;3230;42.588;23.358;2024-03-02T13:50:51;26.17;;;13.23;;
6394;SDS011;3230;42.588;23.358;2024-03-02T13:53:20;27.10;;;14.67;;
6394;SDS011;3230;42.588;23.358;2024-03-02T13:55:45;27.43;;;14.87;;
6394;SDS011;3230;42.588;23.358;2024-03-02T13:58:11;26.47;;;13.20;;
6394;SDS011;3230;42.588;23.358;2024-03-02T14:00:37;23.60;;;13.90;;
6394;SDS011;3230;42.588;23.358;2024-03-02T14:03:04;25.20;;;13.30;;
6394;SDS011;3230;42.588;23.358;2024-03-02T14:05:31;23.73;;;14.27;;
6394;SDS011;3230;42.588;23.358;2024-03-02T14:07:57;25.00;;;14.27;;
6394;SDS011;3230;42.588;23.358;2024-03-02T14:10:23;25.70;;;13.43;;
6394;SDS011;3230;42.588;23.358;2024-03-02T14:12:49;26.70;;;13.90;;
6394;SDS011;3230;42.588;23.358;2024-03-02T14:15:15;25.07;;;12.73;;
6394;SDS011;3230;42.588;23.358;2024-03-02T14:17:40;22.30;;;13.00;;
6394;SDS011;3230;42.588;23.358;2024-03-02T14:20:06;25.57;;;14.00;;
6394;SDS011;3230;42.588;23.358;2024-03-02T14:22:32;28.10;;;14.37;;
6394;SDS011;3230;42.588;23.358;2024-03-02T14:24:58;25.70;;;14.40;;
6394;SDS011;3230;42.588;23.358;2024-03-02T14:27:24;28.00;;;14.60;;
6394;SDS011;3230;42.588;23.358;2024-03-02T14:29:50;30.13;;;15.70;;
6394;SDS011;3230;42.588;23.358;2024-03-02T14:32:16;28.07;;;14.03;;
6394;SDS011;3230;42.588;23.358;2024-03-02T14:34:41;27.87;;;14.87;;
6394;SDS011;3230;42.588;23.358;2024-03-02T14:37:07;26.23;;;13.93;;
6394;SDS011;3230;42.588;23.358;2024-03-02T14:39:32;29.90;;;16.13;;
6394;SDS011;3230;42.588;23.358;2024-03-02T14:42:00;25.83;;;14.10;;
6394;SDS011;3230;42.588;23.358;2024-03-02T14:44:26;29.67;;;14.33;;